Rock Springs, Wyoming
Current Conditions -  °F | °C
As of 8:54 AM on Thursday 23 Oct 2014 (Local Time) from KRKS Reporting Station
Clear Clear  
Wind Chill: 32°   Ceiling: Unl
Heat Index: 36°   Visibility: 10mi
Dew Point: 24°   Wind: 5mph
Humidity: 62%   Direction: 80°E
Pressure: 30.23"   Gusts: NA
Location:  41.59°N, 109.22°W
Report Text: KRKS 231454Z AUTO 08004KT 10SM CLR 02/M04 A3023 RMK AO2 SLP230 T00221044 53003
Loading
Personal Weather Stations






























Interactive Weather Map
Tropical Storm Tracking
New forecast layout! Learn more

10-Day Weather Forecast

Advertisements
Track Severe Weather on mobile